createdAt,value
2019-01-13T00:01:03.742Z,19.10
2019-01-13T00:03:06.015Z,25.10
2019-01-13T00:05:08.065Z,16.77
2019-01-13T00:07:09.990Z,30.23
2019-01-13T00:09:11.981Z,26.40
2019-01-13T00:11:13.992Z,22.27
2019-01-13T00:13:16.095Z,18.32
2019-01-13T00:15:18.014Z,30.77
2019-01-13T00:17:19.860Z,20.30
2019-01-13T00:19:21.594Z,20.37
2019-01-13T00:21:23.339Z,20.70
2019-01-13T00:23:25.143Z,19.55
2019-01-13T00:25:27.208Z,20.32
2019-01-13T00:27:28.950Z,18.10
2019-01-13T00:29:30.934Z,20.90
2019-01-13T00:31:32.927Z,16.12
2019-01-13T00:33:34.646Z,12.53
2019-01-13T00:35:36.391Z,24.40
2019-01-13T00:37:38.119Z,24.40
2019-01-13T00:39:39.847Z,22.65
2019-01-13T00:41:41.923Z,14.30
2019-01-13T00:43:43.640Z,25.70
2019-01-13T00:45:45.392Z,24.70
2019-01-13T00:47:47.195Z,21.68
2019-01-13T00:49:48.910Z,17.07
2019-01-13T00:51:50.654Z,27.58
2019-01-13T00:53:52.434Z,20.82
2019-01-13T00:55:54.152Z,33.88
2019-01-13T00:57:55.858Z,24.12
2019-01-13T00:59:57.612Z,31.30
2019-01-13T01:01:59.338Z,25.85
2019-01-13T01:04:01.178Z,19.48
2019-01-13T01:06:03.563Z,18.25
2019-01-13T01:08:06.086Z,25.57
2019-01-13T01:10:09.984Z,21.97
2019-01-13T01:12:11.931Z,14.53
2019-01-13T01:14:13.854Z,19.40
2019-01-13T01:16:15.691Z,23.60
2019-01-13T01:18:17.450Z,24.67
2019-01-13T01:20:19.272Z,17.55
2019-01-13T01:22:21.088Z,24.18
2019-01-13T01:24:22.846Z,15.55
2019-01-13T01:26:24.570Z,14.40
2019-01-13T01:28:26.274Z,14.45
2019-01-13T01:30:33.471Z,17.90
2019-01-13T01:32:31.911Z,18.00
2019-01-13T01:34:33.638Z,20.08
2019-01-13T01:36:35.457Z,18.15
2019-01-13T01:38:37.179Z,18.25
2019-01-13T01:40:38.900Z,18.65
2019-01-13T01:42:40.640Z,11.12
2019-01-13T01:44:42.351Z,23.85
2019-01-13T01:46:44.066Z,19.77
2019-01-13T01:48:45.801Z,18.60
2019-01-13T01:50:47.514Z,14.55
2019-01-13T01:52:49.246Z,16.35
2019-01-13T01:54:50.959Z,15.65
2019-01-13T01:56:52.778Z,12.13
2019-01-13T01:58:54.902Z,19.70
2019-01-13T02:00:56.994Z,22.73
2019-01-13T02:02:58.877Z,20.00
2019-01-13T02:05:00.606Z,17.50
2019-01-13T02:07:02.452Z,16.07
2019-01-13T02:09:06.012Z,24.02
2019-01-13T02:11:07.774Z,14.55
2019-01-13T02:13:09.590Z,18.52
2019-01-13T02:15:15.348Z,13.68
2019-01-13T02:17:17.069Z,10.80
2019-01-13T02:19:18.898Z,9.60
2019-01-13T02:21:20.630Z,12.43
2019-01-13T02:23:22.638Z,16.10
2019-01-13T02:25:27.732Z,11.68
2019-01-13T02:27:29.478Z,13.88
2019-01-13T02:29:31.326Z,16.40
2019-01-13T02:31:33.142Z,14.68
2019-01-13T02:33:34.959Z,9.83
2019-01-13T02:35:36.711Z,14.73
2019-01-13T02:37:38.612Z,7.95
2019-01-13T02:39:40.333Z,13.60
2019-01-13T02:41:42.058Z,8.48
2019-01-13T02:43:43.878Z,6.30
2019-01-13T02:45:45.594Z,8.83
2019-01-13T02:47:47.444Z,11.20
2019-01-13T02:49:49.160Z,12.60
2019-01-13T02:51:50.868Z,8.05
2019-01-13T02:53:52.630Z,13.15
2019-01-13T02:55:54.359Z,10.72
2019-01-13T02:57:56.092Z,10.03
2019-01-13T02:59:58.315Z,11.95
2019-01-13T03:02:00.067Z,13.80
2019-01-13T03:04:01.863Z,11.73
2019-01-13T03:06:03.822Z,10.90
2019-01-13T03:08:05.636Z,16.20
2019-01-13T03:10:13.686Z,13.10
2019-01-13T03:12:15.434Z,17.90
2019-01-13T03:14:17.246Z,23.15
2019-01-13T03:16:18.959Z,18.12
2019-01-13T03:18:20.882Z,9.38
2019-01-13T03:20:22.969Z,15.90
2019-01-13T03:22:24.696Z,21.60
2019-01-13T03:24:26.417Z,17.82
2019-01-13T03:26:28.171Z,20.08
2019-01-13T03:28:29.886Z,24.65
2019-01-13T03:30:31.608Z,15.03
2019-01-13T03:32:33.360Z,14.03
2019-01-13T03:34:35.177Z,21.25
2019-01-13T03:36:36.910Z,20.77
2019-01-13T03:38:38.644Z,11.93
2019-01-13T03:40:40.361Z,16.48
2019-01-13T03:42:42.214Z,18.55
2019-01-13T03:44:44.178Z,16.05
2019-01-13T03:46:46.002Z,14.80
2019-01-13T03:48:47.715Z,12.37
2019-01-13T03:50:49.595Z,12.75
2019-01-13T03:52:53.183Z,16.55
2019-01-13T03:54:55.314Z,15.28
2019-01-13T03:56:57.413Z,15.70
2019-01-13T03:58:59.427Z,14.78
2019-01-13T04:01:01.158Z,15.10
2019-01-13T04:03:03.230Z,12.60
2019-01-13T04:05:06.122Z,15.45
2019-01-13T04:07:07.885Z,19.77
2019-01-13T04:09:09.866Z,21.33
2019-01-13T04:11:11.630Z,14.15
2019-01-13T04:13:13.460Z,14.40
2019-01-13T04:15:42.045Z,13.60
2019-01-13T04:17:44.770Z,17.30
2019-01-13T04:19:46.501Z,13.98
2019-01-13T04:21:48.415Z,21.55
2019-01-13T04:23:50.196Z,18.87
2019-01-13T04:25:52.047Z,15.75
2019-01-13T04:27:54.026Z,14.53
2019-01-13T04:29:55.856Z,13.13
2019-01-13T04:31:57.582Z,13.65
2019-01-13T04:33:59.418Z,19.60
2019-01-13T04:36:01.546Z,10.63
2019-01-13T04:38:03.482Z,14.25
2019-01-13T04:40:05.700Z,22.85
2019-01-13T04:42:07.424Z,12.03
2019-01-13T04:44:09.154Z,16.77
2019-01-13T04:46:10.998Z,15.68
2019-01-13T04:48:12.830Z,11.30
2019-01-13T04:50:15.132Z,11.48
2019-01-13T04:52:16.872Z,9.00
2019-01-13T04:54:18.597Z,18.37
2019-01-13T04:56:20.325Z,21.93
2019-01-13T04:58:22.066Z,10.08
2019-01-13T05:00:23.919Z,11.93
2019-01-13T05:02:25.682Z,17.23
2019-01-13T05:04:27.419Z,16.25
2019-01-13T05:06:29.461Z,17.45
2019-01-13T05:08:31.212Z,22.75
2019-01-13T05:10:33.770Z,14.93
2019-01-13T05:12:35.498Z,19.62
2019-01-13T05:14:37.219Z,11.15
2019-01-13T05:16:39.084Z,10.82
2019-01-13T05:18:40.968Z,18.48
2019-01-13T05:20:42.808Z,22.65
2019-01-13T05:22:44.643Z,8.75
2019-01-13T05:24:46.374Z,14.20
2019-01-13T05:26:48.240Z,10.43
2019-01-13T05:28:49.994Z,11.75
2019-01-13T05:30:51.741Z,10.27
2019-01-13T05:32:53.572Z,10.00
2019-01-13T05:34:55.323Z,10.58
2019-01-13T05:36:57.065Z,6.50
2019-01-13T05:38:59.051Z,6.92
2019-01-13T05:41:00.895Z,8.90
2019-01-13T05:43:03.014Z,11.25
2019-01-13T05:45:05.413Z,5.67
2019-01-13T05:47:07.283Z,6.62
2019-01-13T05:49:09.062Z,6.70
2019-01-13T05:51:10.799Z,12.93
2019-01-13T05:53:12.646Z,11.05
2019-01-13T05:55:14.610Z,6.35
2019-01-13T05:57:16.346Z,8.53
2019-01-13T05:59:18.230Z,8.20
2019-01-13T06:01:19.950Z,10.68
2019-01-13T06:03:21.667Z,8.90
2019-01-13T06:05:23.501Z,15.35
2019-01-13T06:07:25.236Z,15.65
2019-01-13T06:09:26.963Z,18.48
2019-01-13T06:11:28.795Z,12.00
2019-01-13T06:13:30.615Z,17.30
2019-01-13T06:15:32.470Z,16.37
2019-01-13T06:17:34.198Z,25.00
2019-01-13T06:19:35.938Z,17.50
2019-01-13T06:21:37.685Z,25.80
2019-01-13T06:23:39.438Z,18.57
2019-01-13T06:25:41.162Z,19.55
2019-01-13T06:27:43.087Z,14.65
2019-01-13T06:29:44.819Z,23.95
2019-01-13T06:31:46.555Z,17.23
2019-01-13T06:33:48.304Z,15.15
2019-01-13T06:35:50.047Z,11.20
2019-01-13T06:37:51.874Z,18.35
2019-01-13T06:39:53.620Z,12.07
2019-01-13T06:41:55.361Z,19.12
2019-01-13T06:43:57.070Z,13.32
2019-01-13T06:45:58.826Z,17.17
2019-01-13T06:48:00.602Z,17.05
2019-01-13T06:50:03.667Z,11.93
2019-01-13T06:52:05.486Z,20.95
2019-01-13T06:54:07.302Z,11.53
2019-01-13T06:56:09.046Z,13.30
2019-01-13T06:58:10.874Z,12.70
2019-01-13T07:00:21.653Z,15.72
2019-01-13T07:02:23.381Z,11.90
2019-01-13T07:04:25.486Z,9.35
2019-01-13T07:06:27.287Z,11.10
2019-01-13T07:08:29.017Z,11.55
2019-01-13T07:10:31.023Z,21.70
2019-01-13T07:12:32.871Z,12.47
2019-01-13T07:14:34.594Z,12.73
2019-01-13T07:16:36.317Z,10.08
2019-01-13T07:18:38.050Z,10.32
2019-01-13T07:20:39.780Z,8.58
2019-01-13T07:22:43.020Z,15.63
2019-01-13T07:24:45.016Z,8.45
2019-01-13T07:26:46.778Z,11.35
2019-01-13T07:28:48.754Z,9.48
2019-01-13T07:30:50.483Z,10.72
2019-01-13T07:32:52.712Z,8.28
2019-01-13T07:34:54.438Z,10.32
2019-01-13T07:36:56.320Z,10.70
2019-01-13T07:38:58.074Z,9.65
2019-01-13T07:40:59.794Z,9.08
2019-01-13T07:43:01.511Z,12.58
2019-01-13T07:45:04.511Z,8.60
2019-01-13T07:47:06.247Z,10.70
2019-01-13T07:49:08.062Z,11.18
2019-01-13T07:51:09.790Z,9.95
2019-01-13T07:53:11.526Z,9.40
2019-01-13T07:55:15.245Z,10.23
2019-01-13T07:57:16.963Z,10.13
2019-01-13T07:59:19.226Z,9.40
2019-01-13T08:01:20.994Z,4.90
2019-01-13T08:03:25.232Z,6.65
2019-01-13T08:05:27.135Z,7.33
2019-01-13T08:07:28.853Z,7.03
2019-01-13T08:09:31.855Z,9.95
2019-01-13T08:11:33.687Z,6.75
2019-01-13T08:13:35.411Z,6.17
2019-01-13T08:15:37.239Z,6.08
2019-01-13T08:17:39.043Z,7.00
2019-01-13T08:19:43.135Z,8.38
2019-01-13T08:21:47.836Z,14.50
2019-01-13T08:23:49.574Z,5.85
2019-01-13T08:25:51.367Z,6.12
2019-01-13T08:27:53.644Z,5.85
2019-01-13T08:29:57.631Z,7.62
2019-01-13T08:31:59.606Z,6.92
2019-01-13T08:34:01.730Z,4.92
2019-01-13T08:36:04.195Z,5.15
2019-01-13T08:38:06.395Z,7.25
2019-01-13T08:40:11.031Z,4.80
2019-01-13T08:42:13.003Z,5.75
2019-01-13T08:44:14.727Z,3.45
2019-01-13T08:46:16.467Z,4.40
2019-01-13T08:48:18.192Z,3.62
2019-01-13T08:50:23.875Z,3.95
2019-01-13T08:52:25.632Z,5.03
2019-01-13T08:54:27.442Z,5.90
2019-01-13T08:56:29.163Z,4.75
2019-01-13T08:58:31.003Z,4.00
2019-01-13T09:00:33.691Z,3.95
2019-01-13T09:02:35.411Z,5.17
2019-01-13T09:04:37.519Z,4.47
2019-01-13T09:06:39.239Z,4.12
2019-01-13T09:08:41.080Z,3.35
2019-01-13T09:10:42.795Z,4.92
2019-01-13T09:12:44.533Z,5.00
2019-01-13T09:14:46.248Z,3.70
2019-01-13T09:16:47.990Z,4.10
2019-01-13T09:18:49.832Z,3.92
2019-01-13T09:20:51.558Z,4.03
2019-01-13T09:22:53.495Z,3.53
2019-01-13T09:24:55.238Z,4.65
2019-01-13T09:26:56.956Z,4.97
2019-01-13T09:28:58.681Z,3.98
2019-01-13T09:31:00.651Z,3.65
2019-01-13T09:33:02.683Z,3.65
2019-01-13T09:35:04.939Z,4.92
2019-01-13T09:37:06.810Z,4.20
2019-01-13T09:39:08.619Z,3.90
2019-01-13T09:41:10.442Z,3.77
2019-01-13T09:43:12.178Z,3.30
2019-01-13T09:45:14.002Z,3.83
2019-01-13T09:47:15.708Z,3.83
2019-01-13T09:49:17.435Z,4.33
2019-01-13T09:51:19.263Z,4.60
2019-01-13T09:53:20.978Z,3.03
2019-01-13T09:55:23.554Z,3.17
2019-01-13T09:57:25.294Z,4.27
2019-01-13T09:59:27.010Z,5.57
2019-01-13T10:01:28.722Z,3.60
2019-01-13T10:03:30.463Z,3.83
2019-01-13T10:05:32.378Z,3.20
2019-01-13T10:07:34.214Z,4.60
2019-01-13T10:09:35.962Z,3.07
2019-01-13T10:11:37.766Z,3.10
2019-01-13T10:13:39.526Z,3.60
2019-01-13T10:15:41.280Z,2.47
2019-01-13T10:17:43.094Z,2.50
2019-01-13T10:19:44.815Z,2.27
2019-01-13T10:21:46.595Z,3.70
2019-01-13T10:23:48.455Z,2.47
2019-01-13T10:25:50.210Z,3.10
2019-01-13T10:27:51.983Z,3.43
2019-01-13T10:29:54.106Z,2.57
2019-01-13T10:31:56.053Z,2.57
2019-01-13T10:33:57.871Z,3.37
2019-01-13T10:35:59.939Z,2.77
2019-01-13T10:38:01.879Z,3.00
2019-01-13T10:40:05.060Z,2.93
2019-01-13T10:42:06.861Z,4.40
2019-01-13T10:44:09.023Z,2.73
2019-01-13T10:46:10.950Z,3.00
2019-01-13T10:48:13.015Z,3.43
2019-01-13T10:50:17.103Z,7.30
2019-01-13T10:52:18.954Z,3.43
2019-01-13T10:54:20.695Z,5.73
2019-01-13T10:56:22.562Z,3.40
2019-01-13T10:58:24.278Z,3.77
2019-01-13T11:00:28.368Z,9.20
2019-01-13T11:02:30.191Z,5.20
2019-01-13T11:04:32.047Z,6.53
2019-01-13T11:06:33.778Z,3.47
2019-01-13T11:08:35.490Z,4.30
2019-01-13T11:10:37.307Z,3.10
2019-01-13T11:12:39.260Z,8.00
2019-01-13T11:14:41.014Z,7.10
2019-01-13T11:16:42.726Z,4.37
2019-01-13T11:18:44.542Z,6.63
2019-01-13T11:20:46.255Z,5.90
2019-01-13T11:22:48.180Z,6.13
2019-01-13T11:24:49.895Z,6.07
2019-01-13T11:26:51.861Z,6.33
2019-01-13T11:28:53.574Z,6.17
2019-01-13T11:30:55.278Z,7.33
2019-01-13T11:32:57.043Z,3.47
2019-01-13T11:34:58.887Z,8.23
2019-01-13T11:37:00.611Z,9.63
2019-01-13T11:39:05.964Z,7.77
2019-01-13T11:41:07.686Z,4.73
2019-01-13T11:43:09.433Z,4.77
2019-01-13T11:45:11.679Z,4.90
2019-01-13T11:47:13.481Z,4.00
2019-01-13T11:49:15.458Z,4.33
2019-01-13T11:51:17.318Z,4.83
2019-01-13T11:55:29.386Z,10.37
2019-01-13T11:57:31.269Z,6.10
2019-01-13T11:59:33.280Z,6.20
2019-01-13T12:01:35.216Z,6.80
2019-01-13T12:03:37.034Z,10.57
2019-01-13T12:05:39.010Z,7.80
2019-01-13T12:07:40.942Z,7.07
2019-01-13T12:09:42.669Z,7.10
2019-01-13T12:11:44.403Z,6.90
2019-01-13T12:13:47.905Z,13.90
2019-01-13T12:15:49.854Z,18.57
2019-01-13T12:17:51.677Z,9.00
2019-01-13T12:19:53.678Z,11.23
2019-01-13T12:21:56.082Z,12.23
2019-01-13T12:23:58.017Z,12.50
2019-01-13T12:25:59.738Z,17.67
2019-01-13T12:28:01.987Z,15.97
2019-01-13T12:30:06.225Z,27.13
2019-01-13T12:32:08.487Z,17.03
2019-01-13T12:34:10.302Z,14.73
2019-01-13T12:36:12.150Z,17.30
2019-01-13T12:38:14.043Z,13.60
2019-01-13T12:40:16.846Z,16.30
2019-01-13T12:42:18.791Z,33.00
2019-01-13T12:44:20.579Z,16.60
2019-01-13T12:46:22.291Z,20.63
2019-01-13T12:48:24.319Z,25.50
2019-01-13T12:50:27.959Z,24.13
2019-01-13T12:52:33.688Z,17.23
2019-01-13T12:54:35.530Z,17.17
2019-01-13T12:56:37.246Z,15.60
2019-01-13T12:58:39.082Z,21.47
2019-01-13T13:00:41.002Z,21.40
2019-01-13T13:02:42.844Z,20.20
2019-01-13T13:04:44.583Z,31.03
2019-01-13T13:06:46.298Z,26.30
2019-01-13T13:08:48.054Z,21.67
2019-01-13T13:10:52.218Z,21.93
2019-01-13T13:12:53.937Z,17.57
2019-01-13T13:14:55.664Z,32.30
2019-01-13T13:16:57.374Z,26.90
2019-01-13T13:18:59.082Z,24.20
2019-01-13T13:21:00.882Z,28.03
2019-01-13T13:23:04.300Z,23.33
2019-01-13T13:25:06.994Z,31.80
2019-01-13T13:27:08.798Z,28.93
2019-01-13T13:29:10.507Z,34.43
2019-01-13T13:31:12.239Z,18.93
2019-01-13T13:33:14.002Z,25.80
2019-01-13T13:35:15.903Z,33.90
2019-01-13T13:37:17.802Z,32.17
2019-01-13T13:39:19.874Z,27.20
2019-01-13T13:41:21.758Z,36.90
2019-01-13T13:43:32.483Z,23.73
2019-01-13T13:45:34.480Z,31.73
2019-01-13T13:47:36.402Z,25.67
2019-01-13T13:49:38.218Z,30.17
2019-01-13T13:51:39.960Z,40.17
2019-01-13T13:53:41.673Z,33.37
2019-01-13T13:55:46.543Z,46.73
2019-01-13T13:57:48.481Z,40.40
2019-01-13T13:59:50.183Z,23.87
2019-01-13T14:01:52.173Z,18.77
2019-01-13T14:03:54.262Z,25.67
2019-01-13T14:05:56.046Z,22.20
2019-01-13T14:07:57.772Z,29.07
2019-01-13T14:09:59.507Z,18.57
2019-01-13T14:12:01.224Z,19.20
2019-01-13T14:14:03.172Z,20.73
2019-01-13T14:16:05.097Z,22.63
2019-01-13T14:18:06.959Z,23.00
2019-01-13T14:20:11.118Z,34.90
2019-01-13T14:22:13.054Z,20.17
2019-01-13T14:24:14.858Z,15.40
2019-01-13T14:26:16.590Z,28.77
2019-01-13T14:28:18.302Z,12.93
2019-01-13T14:30:22.239Z,23.67
2019-01-13T14:32:23.950Z,17.80
2019-01-13T14:34:25.673Z,25.33
2019-01-13T14:36:27.778Z,20.60
2019-01-13T14:38:29.503Z,17.20
2019-01-13T14:40:31.286Z,25.90
2019-01-13T14:42:33.218Z,14.20
2019-01-13T14:44:35.177Z,19.50
2019-01-13T14:46:36.883Z,15.67
2019-01-13T14:48:38.618Z,17.87
2019-01-13T14:50:40.606Z,19.60
2019-01-13T14:52:42.630Z,13.80
2019-01-13T14:54:44.338Z,16.07
2019-01-13T14:56:46.165Z,9.93
2019-01-13T14:58:47.890Z,14.73
2019-01-13T15:00:49.802Z,14.47
2019-01-13T15:02:51.919Z,11.43
2019-01-13T15:04:53.640Z,12.30
2019-01-13T15:06:55.611Z,12.73
2019-01-13T15:08:57.367Z,13.47
2019-01-13T15:10:59.114Z,13.80
2019-01-13T15:13:00.804Z,5.67
2019-01-13T15:15:03.547Z,11.90
2019-01-13T15:17:05.419Z,6.80
2019-01-13T15:19:07.246Z,8.23
2019-01-13T15:21:09.050Z,6.67
2019-01-13T15:23:10.893Z,14.03
2019-01-13T15:25:21.338Z,10.70
2019-01-13T15:27:23.160Z,20.00
2019-01-13T15:29:25.078Z,12.15
2019-01-13T15:31:26.921Z,8.70
2019-01-13T15:33:28.647Z,11.97
2019-01-13T15:35:30.481Z,16.17
2019-01-13T15:37:32.185Z,17.33
2019-01-13T15:39:33.895Z,30.20
2019-01-13T15:41:35.674Z,15.77
2019-01-13T15:43:37.482Z,19.87
2019-01-13T15:45:39.206Z,20.90
2019-01-13T15:47:41.042Z,17.83
2019-01-13T15:49:42.794Z,19.83
2019-01-13T15:51:44.503Z,12.17
2019-01-13T15:53:46.226Z,22.93
2019-01-13T15:55:47.950Z,16.67
2019-01-13T15:57:49.867Z,21.27
2019-01-13T15:59:51.611Z,17.80
2019-01-13T16:01:53.339Z,17.60
2019-01-13T16:03:55.274Z,18.80
2019-01-13T16:05:57.202Z,29.80
2019-01-13T16:08:05.174Z,16.60
2019-01-13T16:10:10.666Z,17.70
2019-01-13T16:12:12.479Z,16.00
2019-01-13T16:14:14.290Z,17.13
2019-01-13T16:16:17.254Z,18.03
2019-01-13T16:18:18.984Z,21.65
2019-01-13T16:20:23.215Z,10.23
2019-01-13T16:22:25.082Z,16.17
2019-01-13T16:24:26.806Z,15.68
2019-01-13T16:26:28.606Z,9.33
2019-01-13T16:28:30.351Z,13.10
2019-01-13T16:30:32.365Z,16.97
2019-01-13T16:32:37.002Z,23.50
2019-01-13T16:34:39.075Z,21.33
2019-01-13T16:36:40.908Z,22.50
2019-01-13T16:38:42.767Z,16.30
2019-01-13T16:40:44.927Z,20.77
2019-01-13T16:42:46.866Z,25.08
2019-01-13T16:44:48.654Z,13.88
2019-01-13T16:46:50.443Z,21.02
2019-01-13T16:48:52.195Z,23.42
2019-01-13T16:50:54.085Z,18.55
2019-01-13T16:52:56.715Z,19.98
2019-01-13T16:54:58.476Z,29.80
2019-01-13T16:57:00.318Z,22.47
2019-01-13T16:59:02.262Z,26.10
2019-01-13T17:01:04.323Z,27.25
2019-01-13T17:03:06.042Z,24.07
2019-01-13T17:05:08.822Z,25.43
2019-01-13T17:07:10.617Z,19.65
2019-01-13T17:09:12.554Z,29.82
2019-01-13T17:11:14.290Z,32.80
2019-01-13T17:13:16.082Z,31.80
2019-01-13T17:15:26.526Z,22.85
2019-01-13T17:17:28.366Z,16.30
2019-01-13T17:19:30.218Z,26.25
2019-01-13T17:21:32.074Z,28.67
2019-01-13T17:23:33.819Z,18.20
2019-01-13T17:25:35.930Z,23.22
2019-01-13T17:27:37.880Z,25.57
2019-01-13T17:29:39.801Z,28.07
2019-01-13T17:31:45.524Z,29.07
2019-01-13T17:33:52.853Z,20.30
2019-01-13T17:35:54.884Z,30.20
2019-01-13T17:37:56.754Z,29.07
2019-01-13T17:39:58.509Z,27.90
2019-01-13T17:42:00.315Z,26.15
2019-01-13T17:44:02.136Z,30.08
2019-01-13T17:46:03.978Z,27.77
2019-01-13T17:48:07.471Z,33.75
2019-01-13T17:50:14.329Z,21.35
2019-01-13T17:52:16.415Z,28.50
2019-01-13T17:56:53.917Z,25.43
2019-01-13T17:58:58.880Z,28.83
2019-01-13T18:01:31.711Z,26.87
2019-01-13T18:03:40.207Z,20.43
2019-01-13T18:05:42.275Z,25.97
2019-01-13T18:07:44.453Z,16.50
2019-01-13T18:09:46.411Z,25.43
2019-01-13T18:11:48.161Z,26.55
2019-01-13T18:13:50.096Z,21.62
2019-01-13T18:15:52.104Z,18.15
2019-01-13T18:17:53.945Z,19.95
2019-01-13T18:19:56.034Z,27.30
2019-01-13T18:21:58.158Z,26.70
2019-01-13T18:24:00.142Z,37.90
2019-01-13T18:26:02.232Z,31.82
2019-01-13T18:28:04.195Z,33.18
2019-01-13T18:30:10.295Z,25.93
2019-01-13T18:32:12.261Z,21.83
2019-01-13T18:34:14.210Z,24.50
2019-01-13T18:36:16.328Z,18.60
2019-01-13T18:38:18.367Z,106.15
2019-01-13T18:40:20.447Z,36.53
2019-01-13T18:42:22.185Z,34.27
2019-01-13T18:44:23.966Z,19.70
2019-01-13T18:46:25.755Z,33.98
2019-01-13T18:48:27.646Z,24.70
2019-01-13T18:50:29.483Z,27.02
2019-01-13T18:52:31.331Z,22.47
2019-01-13T18:54:41.897Z,19.20
2019-01-13T18:56:43.733Z,19.15
2019-01-13T18:58:45.504Z,22.37
2019-01-13T19:00:47.447Z,22.73
2019-01-13T19:03:20.860Z,22.47
2019-01-13T19:05:23.076Z,28.20
2019-01-13T19:07:25.927Z,19.77
2019-01-13T19:09:27.789Z,19.90
2019-01-13T19:11:39.439Z,23.83
2019-01-13T19:14:08.868Z,21.30
2019-01-13T19:16:14.379Z,25.62
2019-01-13T19:18:16.254Z,23.35
2019-01-13T19:20:27.400Z,21.12
2019-01-13T19:22:32.067Z,15.60
2019-01-13T19:24:33.853Z,16.47
2019-01-13T19:26:35.752Z,22.20
2019-01-13T19:28:37.664Z,16.57
2019-01-13T19:30:39.420Z,28.30
2019-01-13T19:32:41.503Z,15.30
2019-01-13T19:34:43.343Z,26.33
2019-01-13T19:36:45.688Z,23.27
2019-01-13T19:38:47.731Z,23.55
2019-01-13T19:40:49.604Z,28.87
2019-01-13T19:42:51.498Z,34.55
2019-01-13T19:44:53.313Z,19.37
2019-01-13T19:46:55.180Z,28.25
2019-01-13T19:48:57.049Z,30.75
2019-01-13T19:50:59.312Z,24.72
2019-01-13T19:53:01.326Z,19.48
2019-01-13T19:55:05.221Z,25.72
2019-01-13T19:57:07.216Z,22.05
2019-01-13T19:59:09.004Z,23.38
2019-01-13T20:01:10.987Z,15.27
2019-01-13T20:03:12.995Z,21.68
2019-01-13T20:05:14.984Z,22.80
2019-01-13T20:07:17.001Z,25.65
2019-01-13T20:09:18.952Z,20.60
2019-01-13T20:11:21.139Z,21.50
2019-01-13T20:13:22.907Z,23.20
2019-01-13T20:15:24.918Z,31.62
2019-01-13T20:17:26.795Z,21.23
2019-01-13T20:19:29.610Z,25.12
2019-01-13T20:21:31.460Z,21.10
2019-01-13T20:23:33.300Z,23.22
2019-01-13T20:25:35.219Z,35.75
2019-01-13T20:27:37.386Z,13.35
2019-01-13T20:29:39.179Z,18.77
2019-01-13T20:31:40.970Z,19.62
2019-01-13T20:33:42.907Z,18.00
2019-01-13T20:35:44.711Z,20.73
2019-01-13T20:37:46.580Z,15.20
2019-01-13T20:39:48.350Z,18.80
2019-01-13T20:41:50.527Z,20.12
2019-01-13T20:43:52.312Z,21.62
2019-01-13T20:45:54.091Z,12.35
2019-01-13T20:47:55.848Z,12.70
2019-01-13T20:49:57.783Z,16.73
2019-01-13T20:51:59.817Z,18.02
2019-01-13T20:54:07.673Z,18.48
2019-01-13T20:56:05.552Z,18.80
2019-01-13T20:58:09.243Z,19.48
2019-01-13T21:00:18.055Z,17.98
2019-01-13T21:02:19.881Z,17.80
2019-01-13T21:04:21.697Z,17.35
2019-01-13T21:06:23.452Z,15.05
2019-01-13T21:08:25.429Z,24.85
2019-01-13T21:10:27.477Z,26.23
2019-01-13T21:12:29.349Z,29.45
2019-01-13T21:14:31.400Z,20.85
2019-01-13T21:16:33.213Z,22.15
2019-01-13T21:18:34.976Z,16.77
2019-01-13T21:20:36.983Z,20.02
2019-01-13T21:22:38.991Z,24.55
2019-01-13T21:24:40.763Z,22.73
2019-01-13T21:26:42.596Z,19.62
2019-01-13T21:28:44.444Z,41.98
2019-01-13T21:30:46.419Z,23.95
2019-01-13T21:32:48.306Z,24.35
2019-01-13T21:34:50.210Z,21.07
2019-01-13T21:36:52.059Z,22.10
2019-01-13T21:38:54.035Z,25.30
2019-01-13T21:40:55.819Z,16.40
2019-01-13T21:42:57.571Z,24.23
2019-01-13T21:44:59.360Z,24.27
2019-01-13T21:47:01.403Z,31.73
2019-01-13T21:49:03.388Z,23.83
2019-01-13T21:51:05.140Z,22.13
2019-01-13T21:53:07.225Z,25.08
2019-01-13T21:55:10.486Z,21.42
2019-01-13T21:57:12.363Z,29.82
2019-01-13T21:59:14.244Z,22.80
2019-01-13T22:01:16.091Z,20.30
2019-01-13T22:03:18.022Z,22.13
2019-01-13T22:05:19.982Z,16.93
2019-01-13T22:07:21.752Z,19.65
2019-01-13T22:09:23.794Z,27.30
2019-01-13T22:11:25.798Z,24.92
2019-01-13T22:13:27.598Z,22.22
2019-01-13T22:15:29.423Z,22.25
2019-01-13T22:17:31.518Z,24.35
2019-01-13T22:19:33.675Z,26.02
2019-01-13T22:21:35.503Z,32.70
2019-01-13T22:23:37.742Z,48.00
2019-01-13T22:25:40.474Z,27.00
2019-01-13T22:27:42.417Z,30.23
2019-01-13T22:29:44.168Z,27.15
2019-01-13T22:31:46.379Z,31.23
2019-01-13T22:33:48.447Z,30.97
2019-01-13T22:35:50.333Z,19.98
2019-01-13T22:37:55.797Z,21.27
2019-01-13T22:39:55.979Z,18.00
2019-01-13T22:41:57.716Z,29.10
2019-01-13T22:43:59.524Z,19.02
2019-01-13T22:46:01.269Z,24.40
2019-01-13T22:48:03.345Z,29.07
2019-01-13T22:50:06.678Z,22.15
2019-01-13T22:52:08.857Z,30.45
2019-01-13T22:54:10.833Z,36.85
2019-01-13T22:56:12.611Z,20.55
2019-01-13T22:58:14.482Z,34.92
2019-01-13T23:00:50.331Z,31.73
2019-01-13T23:02:52.239Z,20.40
2019-01-13T23:04:54.688Z,22.73
2019-01-13T23:06:56.675Z,21.33
2019-01-13T23:08:58.429Z,29.20
2019-01-13T23:11:00.188Z,23.52
2019-01-13T23:13:02.068Z,26.23
2019-01-13T23:15:04.487Z,37.35
2019-01-13T23:17:06.338Z,28.32
2019-01-13T23:19:08.295Z,28.55
2019-01-13T23:21:10.233Z,25.40
2019-01-13T23:23:11.983Z,24.70
2019-01-13T23:25:13.740Z,26.60
2019-01-13T23:27:15.631Z,34.58
2019-01-13T23:29:17.399Z,25.82
2019-01-13T23:31:19.289Z,32.23
2019-01-13T23:33:21.089Z,19.30
2019-01-13T23:35:22.983Z,33.95
2019-01-13T23:37:24.839Z,30.62
2019-01-13T23:39:26.898Z,27.05
2019-01-13T23:41:28.828Z,30.55
2019-01-13T23:43:30.812Z,24.05
2019-01-13T23:45:32.704Z,28.23
2019-01-13T23:47:34.620Z,30.72
2019-01-13T23:49:36.922Z,26.68
2019-01-13T23:51:39.466Z,29.90
2019-01-13T23:53:43.881Z,25.17
2019-01-13T23:55:46.108Z,22.80
2019-01-13T23:57:48.156Z,31.70
2019-01-13T23:59:50.494Z,24.55
